createdAt,value
2022-10-24T00:01:53.785Z,100192.38
2022-10-24T00:06:56.454Z,100194.71
2022-10-24T00:11:59.191Z,100198.51
2022-10-24T00:17:03.110Z,100199.76
2022-10-24T00:22:06.022Z,100200.89
2022-10-24T00:27:09.780Z,100197.70
2022-10-24T00:32:12.484Z,100197.17
2022-10-24T00:37:15.238Z,100197.71
2022-10-24T00:42:18.114Z,100200.98
2022-10-24T00:47:25.088Z,100200.44
2022-10-24T00:52:38.345Z,100189.73
2022-10-24T00:57:53.281Z,100181.63
2022-10-24T01:02:56.621Z,100184.45
2022-10-24T01:08:25.063Z,100178.03
2022-10-24T01:14:07.144Z,100173.80
2022-10-24T01:19:21.824Z,100165.85
2022-10-24T01:24:43.108Z,100157.52
2022-10-24T01:30:04.411Z,100143.43
2022-10-24T01:35:16.088Z,100136.98
2022-10-24T01:40:26.360Z,100127.78
2022-10-24T01:45:36.051Z,100119.98
2022-10-24T01:50:41.006Z,100105.48
2022-10-24T01:55:45.759Z,100094.27
2022-10-24T02:00:51.286Z,100091.11
2022-10-24T02:05:59.636Z,100081.58
2022-10-24T02:11:05.936Z,100077.77
2022-10-24T02:16:09.884Z,100079.16
2022-10-24T02:21:19.578Z,100066.38
2022-10-24T02:26:31.599Z,100055.84
2022-10-24T02:31:41.084Z,100052.52
2022-10-24T02:36:45.423Z,100059.56
2022-10-24T02:41:51.110Z,100052.84
2022-10-24T02:46:59.321Z,100039.44
2022-10-24T02:52:02.724Z,100034.45
2022-10-24T02:57:05.501Z,100034.09
2022-10-24T03:02:08.263Z,100035.45
2022-10-24T03:07:11.389Z,100027.03
2022-10-24T03:12:16.947Z,100028.95
2022-10-24T03:17:19.704Z,100022.08
2022-10-24T03:22:22.417Z,100013.04
2022-10-24T03:27:25.135Z,100012.30
2022-10-24T03:32:27.851Z,100009.95
2022-10-24T03:37:31.279Z,100005.65
2022-10-24T03:42:33.998Z,99998.64
2022-10-24T03:47:37.180Z,99992.52
2022-10-24T03:52:40.055Z,99979.70
2022-10-24T03:57:43.040Z,99982.01
2022-10-24T04:02:47.077Z,99978.40
2022-10-24T04:07:49.761Z,99969.19
2022-10-24T04:12:52.519Z,99972.84
2022-10-24T04:17:55.196Z,99974.51
2022-10-24T04:23:00.043Z,99963.56
2022-10-24T04:28:05.158Z,99958.67
2022-10-24T04:33:07.907Z,99965.90
2022-10-24T04:38:10.585Z,99965.03
2022-10-24T04:43:13.591Z,99953.89
2022-10-24T04:48:17.076Z,99949.91
2022-10-24T04:53:20.116Z,99945.89
2022-10-24T04:58:22.939Z,99939.16
2022-10-24T05:03:25.650Z,99939.67
2022-10-24T05:08:28.344Z,99936.78
2022-10-24T05:13:34.333Z,99927.55
2022-10-24T05:18:39.466Z,99913.22
2022-10-24T05:23:42.242Z,99905.04
2022-10-24T05:28:48.723Z,99905.56
2022-10-24T05:33:54.354Z,99908.66
2022-10-24T05:38:57.067Z,99913.15
2022-10-24T05:44:01.081Z,99916.02
2022-10-24T05:49:06.651Z,99919.69
2022-10-24T05:59:20.947Z,99943.88
2022-10-24T06:04:23.769Z,99952.26
2022-10-24T06:09:35.968Z,99960.52
2022-10-24T06:14:40.596Z,99962.85
2022-10-24T06:19:44.269Z,99973.55
2022-10-24T06:24:47.338Z,99982.25
2022-10-24T06:29:50.060Z,99985.72
2022-10-24T06:34:53.013Z,99993.42
2022-10-24T06:39:55.892Z,99984.14
2022-10-24T06:50:02.824Z,99972.90
2022-10-24T06:55:05.855Z,99976.02
2022-10-24T07:00:10.812Z,99989.48
2022-10-24T07:05:19.047Z,99988.13
2022-10-24T07:10:25.416Z,99982.39
2022-10-24T07:15:28.517Z,99981.58
2022-10-24T07:20:31.344Z,99969.41
2022-10-24T07:25:34.608Z,99957.83
2022-10-24T07:30:39.285Z,99954.20
2022-10-24T07:35:44.984Z,99950.19
2022-10-24T07:40:49.147Z,99941.58
2022-10-24T07:51:09.165Z,99937.74
2022-10-24T07:56:15.836Z,99928.17
2022-10-24T08:06:49.673Z,99932.21
2022-10-24T08:12:13.494Z,99928.87
2022-10-24T08:17:19.708Z,99921.31
2022-10-24T08:22:22.962Z,99919.85
2022-10-24T08:27:27.752Z,99926.91
2022-10-24T08:32:30.750Z,99932.74
2022-10-24T08:37:39.011Z,99938.41
2022-10-24T08:42:44.558Z,99940.23
2022-10-24T08:47:59.416Z,99952.91
2022-10-24T08:53:18.360Z,99946.92
2022-10-24T08:58:29.937Z,99939.30
2022-10-24T09:03:55.646Z,99937.88
2022-10-24T09:09:15.586Z,99936.07
2022-10-24T09:14:21.770Z,99935.39
2022-10-24T09:19:28.367Z,99956.15
2022-10-24T09:24:55.311Z,99952.42
2022-10-24T09:30:00.368Z,99945.08
2022-10-24T09:35:12.318Z,99937.17
2022-10-24T09:40:32.386Z,99937.00
2022-10-24T09:45:46.448Z,99935.63
2022-10-24T09:50:51.516Z,99934.39
2022-10-24T09:56:08.666Z,99936.86
2022-10-24T10:01:14.415Z,99937.59
2022-10-24T10:06:21.956Z,99927.84
2022-10-24T10:11:35.344Z,99917.57
2022-10-24T10:16:40.760Z,99925.27
2022-10-24T10:27:54.538Z,99922.00
2022-10-24T10:33:32.669Z,99909.55
2022-10-24T10:38:50.691Z,99904.14
2022-10-24T10:44:04.312Z,99903.73
2022-10-24T10:49:41.091Z,99899.71
2022-10-24T10:55:02.705Z,99893.40
2022-10-24T11:00:13.288Z,99900.31
2022-10-24T11:05:24.554Z,99907.67
2022-10-24T11:10:35.301Z,99913.23
2022-10-24T11:15:44.695Z,99905.62
2022-10-24T11:21:12.378Z,99900.48
2022-10-24T11:26:24.186Z,99886.26
2022-10-24T11:31:38.422Z,99867.59
2022-10-24T11:36:55.917Z,99862.94
2022-10-24T11:42:02.372Z,99870.55
2022-10-24T11:47:26.994Z,99875.32
2022-10-24T11:52:35.545Z,99864.66
2022-10-24T11:57:45.741Z,99858.62
2022-10-24T12:03:15.331Z,99853.38
2022-10-24T12:08:23.605Z,99840.64
2022-10-24T12:14:11.412Z,99825.30
2022-10-24T12:19:19.148Z,99829.69
2022-10-24T12:24:32.162Z,99829.63
2022-10-24T12:29:37.120Z,99836.98
2022-10-24T12:34:49.082Z,99836.48
2022-10-24T12:39:57.589Z,99832.78
2022-10-24T12:45:11.584Z,99840.13
2022-10-24T12:50:40.534Z,99839.91
2022-10-24T12:55:43.133Z,99827.35
2022-10-24T13:00:58.533Z,99817.58
2022-10-24T13:06:14.625Z,99807.69
2022-10-24T13:11:54.683Z,99808.08
2022-10-24T13:17:19.056Z,99809.88
2022-10-24T13:22:34.441Z,99818.92
2022-10-24T13:27:37.357Z,99815.77
2022-10-24T13:32:40.595Z,99813.81
2022-10-24T13:37:50.743Z,99826.96
2022-10-24T13:42:58.735Z,99823.16
2022-10-24T13:48:08.114Z,99829.49
2022-10-24T13:53:30.865Z,99833.36
2022-10-24T13:58:44.278Z,99836.13
2022-10-24T14:03:49.818Z,99832.87
2022-10-24T14:09:05.530Z,99815.19
2022-10-24T14:14:32.671Z,99826.25
2022-10-24T14:19:39.236Z,99823.82
2022-10-24T14:24:46.206Z,99830.50
2022-10-24T14:30:17.248Z,99837.54
2022-10-24T14:35:20.094Z,99840.12
2022-10-24T14:40:23.610Z,99840.61
2022-10-24T14:45:31.743Z,99836.65
2022-10-24T14:50:45.056Z,99837.54
2022-10-24T14:55:56.538Z,99839.34
2022-10-24T15:01:00.141Z,99842.88
2022-10-24T15:06:12.924Z,99844.28
2022-10-24T15:11:22.176Z,99835.46
2022-10-24T15:16:38.934Z,99832.61
2022-10-24T15:21:43.905Z,99834.72
2022-10-24T15:26:47.197Z,99834.95
2022-10-24T15:31:52.158Z,99827.60
2022-10-24T15:36:57.049Z,99820.20
2022-10-24T15:41:59.883Z,99832.13
2022-10-24T15:47:02.945Z,99834.99
2022-10-24T15:52:08.380Z,99840.16
2022-10-24T15:57:14.458Z,99844.83
2022-10-24T16:02:23.722Z,99848.16
2022-10-24T16:07:26.749Z,99838.55
2022-10-24T16:12:30.247Z,99830.59
2022-10-24T16:17:33.193Z,99825.96
2022-10-24T16:22:36.039Z,99829.66
2022-10-24T16:27:38.839Z,99818.93
2022-10-24T16:32:41.668Z,99815.51
2022-10-24T16:37:44.594Z,99818.11
2022-10-24T16:42:51.914Z,99814.59
2022-10-24T16:47:57.255Z,99810.02
2022-10-24T16:53:03.580Z,99805.08
2022-10-24T16:58:06.278Z,99805.32
2022-10-24T17:03:09.187Z,99809.27
2022-10-24T17:08:11.993Z,99818.85
2022-10-24T17:13:14.730Z,99820.35
2022-10-24T17:18:20.468Z,99821.66
2022-10-24T17:23:23.509Z,99822.03
2022-10-24T17:28:33.047Z,99822.39
2022-10-24T17:33:38.144Z,99822.16
2022-10-24T17:39:10.832Z,99826.16
2022-10-24T17:44:18.321Z,99824.45
2022-10-24T17:49:21.931Z,99818.91
2022-10-24T17:54:24.948Z,99819.44
2022-10-24T17:59:27.665Z,99827.06
2022-10-24T18:09:37.047Z,99837.59
2022-10-24T18:14:39.909Z,99833.67
2022-10-24T18:19:42.626Z,99826.98
2022-10-24T18:24:45.519Z,99829.77
2022-10-24T18:29:48.278Z,99828.31
2022-10-24T18:34:51.290Z,99821.64
2022-10-24T18:39:54.633Z,99820.85
2022-10-24T18:44:58.026Z,99828.89
2022-10-24T18:50:01.672Z,99827.62
2022-10-24T18:55:16.892Z,99827.52
2022-10-24T19:00:28.585Z,99834.56
2022-10-24T19:05:54.734Z,99836.77
2022-10-24T19:10:58.214Z,99833.13
2022-10-24T19:16:04.186Z,99820.29
2022-10-24T19:21:07.069Z,99801.30
2022-10-24T19:26:11.988Z,99805.04
2022-10-24T19:31:15.968Z,99805.69
2022-10-24T19:36:19.372Z,99798.34
2022-10-24T19:41:23.897Z,99791.61
2022-10-24T19:46:26.709Z,99790.73
2022-10-24T19:51:29.731Z,99791.79
2022-10-24T19:56:33.322Z,99787.39
2022-10-24T20:01:36.666Z,99779.88
2022-10-24T20:06:39.794Z,99779.28
2022-10-24T20:11:42.556Z,99775.20
2022-10-24T20:16:45.346Z,99775.38
2022-10-24T20:21:48.117Z,99774.05
2022-10-24T20:26:50.956Z,99771.88
2022-10-24T20:31:53.667Z,99766.81
2022-10-24T20:36:56.831Z,99767.44
2022-10-24T20:41:59.593Z,99765.56
2022-10-24T20:47:02.348Z,99764.13
2022-10-24T20:52:05.189Z,99768.39
2022-10-24T20:57:09.254Z,99761.92
2022-10-24T21:02:12.203Z,99763.25
2022-10-24T21:07:15.083Z,99775.30
2022-10-24T21:12:18.063Z,99772.88
2022-10-24T21:17:20.983Z,99757.48
2022-10-24T21:22:23.929Z,99756.96
2022-10-24T21:27:26.626Z,99760.32
2022-10-24T21:32:29.378Z,99757.05
2022-10-24T21:37:32.820Z,99757.78
2022-10-24T21:42:35.557Z,99757.49
2022-10-24T21:47:38.287Z,99765.67
2022-10-24T21:52:41.094Z,99780.66
2022-10-24T21:57:43.891Z,99791.23
2022-10-24T22:02:46.914Z,99800.56
2022-10-24T22:07:49.917Z,99802.04
2022-10-24T22:12:52.661Z,99807.30
2022-10-24T22:17:55.415Z,99811.05
2022-10-24T22:22:58.212Z,99803.65
2022-10-24T22:28:01.243Z,99807.20
2022-10-24T22:33:04.511Z,99807.55
2022-10-24T22:38:08.570Z,99815.52
2022-10-24T22:43:11.533Z,99817.45
2022-10-24T22:48:25.595Z,99828.27
2022-10-24T22:53:30.544Z,99828.11
2022-10-24T22:58:33.586Z,99828.52
2022-10-24T23:04:02.805Z,99832.33
2022-10-24T23:09:05.558Z,99827.19
2022-10-24T23:14:10.575Z,99822.05
2022-10-24T23:19:28.164Z,99821.47
2022-10-24T23:24:31.104Z,99824.02
2022-10-24T23:29:35.576Z,99829.85
2022-10-24T23:34:38.467Z,99824.33
2022-10-24T23:39:41.379Z,99827.11
2022-10-24T23:44:44.470Z,99827.55
2022-10-24T23:50:12.085Z,99813.23
2022-10-24T23:55:18.186Z,99810.85
